| time (UTC) | temp C | wind direction | speed KPH | gust KPH | rain 1hr cm | rain 24hr cm | rain mn cm | humidity % | barometer mb |
| 20260504190008 | 19 | 169 | 14.5 | 27.4 | 0.00 | 0.00 | 0.00 | 33 | 1005.8 |
| 20260504184507 | 18 | 360 | 11.3 | 22.5 | 0.00 | 0.00 | 0.00 | 33 | 1006.4 |
| 20260504183005 | 18 | 171 | 16.1 | 37.0 | 0.00 | 0.00 | 0.00 | 33 | 1006.3 |
| 20260504181503 | 18 | 183 | 20.9 | 30.6 | 0.00 | 0.00 | 0.00 | 34 | 1006.2 |
| 20260504180002 | 18 | 360 | 9.7 | 27.4 | 0.00 | 0.00 | 0.00 | 35 | 1006.5 |
| 20260504174602 | 18 | 360 | 20.9 | 33.8 | 0.00 | 0.00 | 0.00 | 33 | 1006.5 |
| 20260504173057 | 17 | 180 | 19.3 | 37.0 | 0.00 | 0.00 | 0.00 | 35 | 1006.6 |
| 20260504171555 | 17 | 360 | 22.5 | 37.0 | 0.00 | 0.00 | 0.00 | 35 | 1006.6 |
| 20260504120129 | 3 | 338 | 3.2 | 9.7 | 0.00 | 0.00 | 0.00 | 71 | 1004.9 |
| 20260504100141 | 5 | 311 | 0.0 | 4.8 | 0.00 | 0.00 | 0.00 | 63 | 1005.0 |
| 20260504081530 | 6 | 286 | 1.6 | 6.4 | 0.00 | 0.00 | 0.00 | 63 | 1005.2 |
| 20260504050001 | 12 | 323 | 1.6 | 4.8 | 0.00 | 0.00 | 0.00 | 45 | 1005.2 |
| 20260504044600 | 13 | 263 | 1.6 | 9.7 | 0.00 | 0.00 | 0.00 | 42 | 1005.2 |
| 20260504043115 | 13 | 292 | 0.0 | 6.4 | 0.00 | 0.00 | 0.00 | 42 | 1005.3 |
| 20260504041559 | 13 | 32 | 1.6 | 3.2 | 0.00 | 0.00 | 0.00 | 42 | 1005.3 |
| 20260504040059 | 14 | 33 | 1.6 | 3.2 | 0.00 | 0.00 | 0.00 | 41 | 1005.2 |
| 20260504034559 | 14 | 28 | 0.0 | 4.8 | 0.00 | 0.00 | 0.00 | 39 | 1005.1 |
| 20260504033119 | 14 | 51 | 4.8 | 8.0 | 0.00 | 0.00 | 0.00 | 40 | 1005.1 |
| 20260504031600 | 15 | 94 | 1.6 | 4.8 | 0.00 | 0.00 | 0.00 | 38 | 1004.8 |
| 20260504030115 | 15 | 94 | 3.2 | 6.4 | 0.00 | 0.00 | 0.00 | 36 | 1004.6 |
| 20260504024557 | 16 | 92 | 4.8 | 9.7 | 0.00 | 0.00 | 0.00 | 36 | 1004.4 |
| 20260504023056 | 16 | 117 | 3.2 | 14.5 | 0.00 | 0.00 | 0.00 | 36 | 1004.3 |
| 20260504021557 | 17 | 107 | 12.9 | 16.1 | 0.00 | 0.00 | 0.00 | 34 | 1004.2 |
| 20260504020105 | 18 | 117 | 8.0 | 16.1 | 0.00 | 0.00 | 0.00 | 31 | 1004.0 |
| 20260504014604 | 19 | 102 | 8.0 | 17.7 | 0.00 | 0.00 | 0.00 | 29 | 1003.8 |
| 20260504013056 | 20 | 109 | 12.9 | 17.7 | 0.00 | 0.00 | 0.00 | 27 | 1003.7 |
| 20260504011553 | 21 | 88 | 4.8 | 9.7 | 0.00 | 0.00 | 0.00 | 24 | 1003.8 |
| 20260504010058 | 22 | 96 | 9.7 | 12.9 | 0.00 | 0.00 | 0.00 | 22 | 1003.9 |
| 20260504004552 | 22 | 121 | 9.7 | 17.7 | 0.00 | 0.00 | 0.00 | 23 | 1004.0 |
| 20260504003050 | 22 | 96 | 11.3 | 19.3 | 0.00 | 0.00 | 0.00 | 21 | 1004.0 |
| 20260504001556 | 22 | 93 | 9.7 | 20.9 | 0.00 | 0.00 | 0.00 | 20 | 1004.0 |
| 20260504000051 | 22 | 107 | 14.5 | 29.0 | 0.00 | 0.00 | 0.00 | 22 | 1004.1 |
| 20260503234543 | 23 | 95 | 16.1 | 38.6 | 0.00 | 0.00 | 0.00 | 21 | 1004.1 |
| 20260503233040 | 24 | 21 | 8.0 | 16.1 | 0.00 | 0.00 | 0.00 | 16 | 1004.2 |
| 20260503231538 | 24 | 71 | 1.6 | 6.4 | 0.00 | 0.00 | 0.00 | 17 | 1004.3 |
| 20260503230045 | 23 | 103 | 8.0 | 14.5 | 0.00 | 0.00 | 0.00 | 19 | 1004.4 |
| 20260503224532 | 23 | 188 | 1.6 | 14.5 | 0.00 | 0.00 | 0.00 | 20 | 1004.5 |
| 20260503223031 | 23 | 196 | 1.6 | 14.5 | 0.00 | 0.00 | 0.00 | 19 | 1004.7 |
| 20260503221533 | 22 | 198 | 8.0 | 14.5 | 0.00 | 0.00 | 0.00 | 20 | 1004.9 |
| 20260503220033 | 22 | 128 | 6.4 | 16.1 | 0.00 | 0.00 | 0.00 | 21 | 1005.3 |
| 20260503214536 | 22 | 360 | 8.0 | 19.3 | 0.00 | 0.00 | 0.00 | 23 | 1005.6 |
| 20260503213032 | 22 | 360 | 9.7 | 14.5 | 0.00 | 0.00 | 0.00 | 22 | 1005.8 |
| 20260503211521 | 23 | 102 | 8.0 | 17.7 | 0.00 | 0.00 | 0.00 | 21 | 1006.2 |
| 20260503210021 | 25 | 302 | 1.6 | 9.7 | 0.00 | 0.00 | 0.00 | 18 | 1006.3 |
| 20260503204526 | 24 | 263 | 4.8 | 19.3 | 0.00 | 0.00 | 0.00 | 19 | 1006.4 |
| 20260503203016 | 24 | 159 | 3.2 | 12.9 | 0.00 | 0.00 | 0.00 | 19 | 1006.7 |
| 20260503201513 | 24 | 302 | 1.6 | 12.9 | 0.00 | 0.00 | 0.00 | 19 | 1006.8 |
| 20260503200009 | 23 | 350 | 1.6 | 14.5 | 0.00 | 0.00 | 0.00 | 20 | 1007.1 |
| 20260503194506 | 22 | 225 | 3.2 | 6.4 | 0.00 | 0.00 | 0.00 | 21 | 1007.5 |
| 20260503193006 | 22 | 74 | 16.1 | 24.1 | 0.00 | 0.00 | 0.00 | 23 | 1008.0 |
| 20260503191502 | 21 | 49 | 14.5 | 22.5 | 0.00 | 0.00 | 0.00 | 22 | 1008.2 |